createdAt,value
2019-02-24T00:02:08.485Z,14.17
2019-02-24T00:04:37.312Z,14.70
2019-02-24T00:07:07.111Z,16.53
2019-02-24T00:09:35.940Z,14.83
2019-02-24T00:12:04.790Z,17.90
2019-02-24T00:14:33.648Z,19.23
2019-02-24T00:17:03.246Z,16.37
2019-02-24T00:19:32.747Z,15.40
2019-02-24T00:22:02.226Z,15.80
2019-02-24T00:24:31.663Z,15.37
2019-02-24T00:27:00.429Z,16.43
2019-02-24T00:29:29.842Z,15.47
2019-02-24T00:31:58.636Z,16.10
2019-02-24T00:34:28.548Z,15.10
2019-02-24T00:36:57.346Z,15.70
2019-02-24T00:39:26.258Z,15.27
2019-02-24T00:41:55.821Z,15.30
2019-02-24T00:44:24.610Z,16.47
2019-02-24T00:46:53.414Z,23.43
2019-02-24T00:49:22.215Z,19.80
2019-02-24T00:51:51.024Z,20.00
2019-02-24T00:54:19.811Z,16.97
2019-02-24T00:56:49.171Z,14.33
2019-02-24T00:59:18.044Z,15.40
2019-02-24T01:01:46.838Z,15.57
2019-02-24T01:04:16.236Z,14.77
2019-02-24T01:06:45.566Z,16.90
2019-02-24T01:09:14.364Z,15.90
2019-02-24T01:11:43.148Z,15.33
2019-02-24T01:14:11.971Z,15.10
2019-02-24T01:16:40.803Z,16.97
2019-02-24T01:19:09.669Z,17.40
2019-02-24T01:21:38.463Z,16.50
2019-02-24T01:24:07.252Z,18.00
2019-02-24T01:26:36.154Z,17.73
2019-02-24T01:29:05.001Z,16.77
2019-02-24T01:31:33.770Z,17.13
2019-02-24T01:34:02.562Z,17.20
2019-02-24T01:36:31.452Z,17.50
2019-02-24T01:39:00.245Z,17.57
2019-02-24T01:41:29.505Z,17.37
2019-02-24T01:43:58.389Z,16.83
2019-02-24T01:46:27.239Z,16.10
2019-02-24T01:48:55.998Z,15.87
2019-02-24T01:51:24.789Z,17.47
2019-02-24T01:53:54.259Z,16.77
2019-02-24T01:56:23.072Z,17.20
2019-02-24T01:58:51.891Z,18.50
2019-02-24T02:01:21.431Z,18.90
2019-02-24T02:03:50.251Z,20.23
2019-02-24T02:06:19.125Z,17.53
2019-02-24T02:08:50.972Z,16.40
2019-02-24T02:11:19.838Z,16.70
2019-02-24T02:13:48.654Z,17.50
2019-02-24T02:16:17.562Z,17.50
2019-02-24T02:18:47.070Z,17.80
2019-02-24T02:21:15.881Z,18.23
2019-02-24T02:23:44.879Z,17.50
2019-02-24T02:26:13.673Z,16.60
2019-02-24T02:28:44.216Z,16.70
2019-02-24T02:31:11.288Z,16.87
2019-02-24T02:33:40.196Z,17.57
2019-02-24T02:36:08.995Z,17.97
2019-02-24T02:38:37.866Z,16.83
2019-02-24T02:41:06.676Z,17.13
2019-02-24T02:43:35.860Z,19.07
2019-02-24T02:46:04.661Z,16.73
2019-02-24T02:48:34.445Z,18.13
2019-02-24T02:51:03.319Z,17.67
2019-02-24T02:53:33.178Z,17.80
2019-02-24T02:56:02.476Z,16.83
2019-02-24T02:58:31.272Z,17.17
2019-02-24T03:01:00.059Z,19.23
2019-02-24T03:03:28.870Z,18.47
2019-02-24T03:06:06.788Z,17.73
2019-02-24T03:08:54.194Z,17.53
2019-02-24T03:11:23.058Z,16.87
2019-02-24T03:13:51.867Z,16.93
2019-02-24T03:16:26.047Z,17.93
2019-02-24T03:18:54.892Z,16.83
2019-02-24T03:21:23.679Z,16.80
2019-02-24T03:23:52.513Z,16.00
2019-02-24T03:26:21.277Z,17.63
2019-02-24T03:28:50.167Z,16.73
2019-02-24T03:31:19.613Z,16.17
2019-02-24T03:33:49.615Z,16.67
2019-02-24T03:36:18.539Z,17.10
2019-02-24T03:38:47.595Z,16.03
2019-02-24T03:41:16.375Z,16.00
2019-02-24T03:43:45.814Z,16.53
2019-02-24T03:46:14.996Z,16.50
2019-02-24T03:48:44.007Z,17.13
2019-02-24T03:51:12.798Z,16.40
2019-02-24T03:53:41.587Z,15.70
2019-02-24T03:56:10.424Z,16.90
2019-02-24T03:58:40.294Z,17.53
2019-02-24T04:01:09.816Z,16.13
2019-02-24T04:03:39.119Z,15.70
2019-02-24T04:06:07.966Z,16.33
2019-02-24T04:08:36.783Z,16.97
2019-02-24T04:11:05.576Z,16.47
2019-02-24T04:13:34.541Z,15.80
2019-02-24T04:16:04.393Z,16.70
2019-02-24T04:18:33.550Z,16.33
2019-02-24T04:21:02.370Z,16.53
2019-02-24T04:23:31.222Z,16.90
2019-02-24T04:26:00.079Z,15.97
2019-02-24T04:28:28.882Z,17.17
2019-02-24T04:30:57.738Z,15.33
2019-02-24T04:33:27.493Z,16.50
2019-02-24T04:35:56.393Z,17.43
2019-02-24T04:38:25.201Z,16.37
2019-02-24T04:40:54.615Z,15.13
2019-02-24T04:43:23.474Z,16.87
2019-02-24T04:45:52.279Z,15.97
2019-02-24T04:48:21.070Z,15.93
2019-02-24T04:50:50.585Z,15.40
2019-02-24T04:53:20.602Z,15.70
2019-02-24T04:55:49.881Z,14.80
2019-02-24T04:58:18.772Z,14.90
2019-02-24T05:00:48.306Z,15.37
2019-02-24T05:03:17.103Z,14.80
2019-02-24T05:05:45.907Z,14.80
2019-02-24T05:08:14.709Z,14.57
2019-02-24T05:10:43.517Z,15.63
2019-02-24T05:13:12.305Z,14.60
2019-02-24T05:15:42.308Z,14.27
2019-02-24T05:18:11.097Z,14.60
2019-02-24T05:20:40.154Z,14.97
2019-02-24T05:23:10.233Z,14.67
2019-02-24T05:25:39.869Z,14.43
2019-02-24T05:28:08.735Z,15.83
2019-02-24T05:30:38.118Z,15.23
2019-02-24T05:33:06.975Z,15.50
2019-02-24T05:35:35.790Z,14.43
2019-02-24T05:38:05.418Z,15.00
2019-02-24T05:40:34.291Z,15.30
2019-02-24T05:43:03.116Z,15.33
2019-02-24T05:45:31.887Z,14.67
2019-02-24T05:48:00.775Z,14.57
2019-02-24T05:50:29.579Z,15.17
2019-02-24T05:52:58.425Z,13.90
2019-02-24T05:55:27.247Z,14.53
2019-02-24T05:57:56.057Z,14.43
2019-02-24T06:00:25.521Z,14.07
2019-02-24T06:02:55.827Z,13.70
2019-02-24T06:05:24.647Z,14.77
2019-02-24T06:07:53.449Z,15.67
2019-02-24T06:10:22.265Z,15.20
2019-02-24T06:12:51.104Z,15.30
2019-02-24T06:15:19.892Z,15.53
2019-02-24T06:17:48.751Z,14.07
2019-02-24T06:20:17.537Z,14.97
2019-02-24T06:22:46.330Z,13.33
2019-02-24T06:25:15.177Z,14.57
2019-02-24T06:27:43.964Z,14.77
2019-02-24T06:30:12.758Z,14.43
2019-02-24T06:32:41.621Z,13.53
2019-02-24T06:35:11.247Z,15.30
2019-02-24T06:37:42.163Z,15.07
2019-02-24T06:40:11.039Z,15.27
2019-02-24T06:42:39.875Z,15.27
2019-02-24T06:45:08.996Z,14.83
2019-02-24T06:47:38.906Z,15.63
2019-02-24T06:50:08.039Z,14.30
2019-02-24T06:52:36.802Z,14.13
2019-02-24T06:55:06.386Z,14.93
2019-02-24T06:57:37.330Z,15.13
2019-02-24T07:00:13.824Z,13.90
2019-02-24T07:02:36.703Z,14.87
2019-02-24T07:05:05.682Z,15.60
2019-02-24T07:07:35.232Z,15.40
2019-02-24T07:10:04.073Z,16.00
2019-02-24T07:12:33.203Z,15.17
2019-02-24T07:15:02.008Z,15.73
2019-02-24T07:17:30.913Z,15.30
2019-02-24T07:19:59.733Z,14.57
2019-02-24T07:22:28.521Z,15.60
2019-02-24T07:24:57.443Z,16.00
2019-02-24T07:27:26.268Z,15.00
2019-02-24T07:29:55.068Z,15.90
2019-02-24T07:32:23.861Z,15.93
2019-02-24T07:34:52.663Z,14.57
2019-02-24T07:37:21.450Z,15.50
2019-02-24T07:39:50.320Z,15.43
2019-02-24T07:42:19.119Z,15.73
2019-02-24T07:44:47.939Z,14.80
2019-02-24T07:47:16.765Z,15.87
2019-02-24T07:49:45.592Z,15.27
2019-02-24T07:52:14.515Z,14.03
2019-02-24T07:54:43.457Z,15.30
2019-02-24T07:57:12.232Z,13.57
2019-02-24T07:59:41.055Z,13.63
2019-02-24T08:02:09.919Z,14.20
2019-02-24T08:04:38.723Z,12.63
2019-02-24T08:07:07.519Z,12.33
2019-02-24T08:09:36.376Z,12.43
2019-02-24T08:12:05.196Z,12.03
2019-02-24T08:14:34.070Z,11.40
2019-02-24T08:17:02.859Z,12.33
2019-02-24T08:19:32.648Z,12.03
2019-02-24T08:22:01.494Z,11.53
2019-02-24T08:24:30.326Z,11.67
2019-02-24T08:26:59.143Z,11.67
2019-02-24T08:29:27.956Z,12.00
2019-02-24T08:31:57.552Z,11.43
2019-02-24T08:34:26.378Z,12.33
2019-02-24T08:36:56.560Z,11.57
2019-02-24T08:39:25.395Z,11.33
2019-02-24T08:41:54.175Z,11.93
2019-02-24T08:44:23.480Z,10.60
2019-02-24T08:46:53.203Z,12.37
2019-02-24T08:49:21.996Z,10.07
2019-02-24T08:51:50.864Z,10.27
2019-02-24T08:54:19.675Z,11.80
2019-02-24T08:56:48.484Z,11.27
2019-02-24T08:59:18.118Z,11.23
2019-02-24T09:01:46.908Z,10.93
2019-02-24T09:04:15.772Z,11.70
2019-02-24T09:06:44.611Z,11.17
2019-02-24T09:09:13.424Z,10.83
2019-02-24T09:11:42.222Z,10.27
2019-02-24T09:14:11.032Z,10.13
2019-02-24T09:16:39.854Z,10.50
2019-02-24T09:19:08.639Z,10.57
2019-02-24T09:21:37.518Z,10.67
2019-02-24T09:24:07.264Z,10.70
2019-02-24T09:26:36.111Z,9.93
2019-02-24T09:29:06.450Z,10.13
2019-02-24T09:31:35.635Z,10.07
2019-02-24T09:34:04.442Z,10.23
2019-02-24T09:36:34.461Z,10.13
2019-02-24T09:39:03.274Z,11.20
2019-02-24T09:41:33.202Z,10.30
2019-02-24T09:44:02.006Z,10.20
2019-02-24T09:46:31.872Z,9.60
2019-02-24T09:49:00.654Z,9.80
2019-02-24T09:51:29.470Z,9.80
2019-02-24T09:53:58.324Z,9.03
2019-02-24T09:56:28.391Z,9.57
2019-02-24T09:58:57.587Z,10.00
2019-02-24T10:01:26.426Z,9.80
2019-02-24T10:03:55.498Z,9.83
2019-02-24T10:06:25.279Z,9.90
2019-02-24T10:08:54.809Z,11.03
2019-02-24T10:11:24.213Z,10.30
2019-02-24T10:13:53.005Z,10.17
2019-02-24T10:16:21.909Z,9.90
2019-02-24T10:18:50.691Z,9.83
2019-02-24T10:21:19.516Z,8.83
2019-02-24T10:23:48.318Z,9.80
2019-02-24T10:26:17.156Z,9.37
2019-02-24T10:28:47.747Z,9.57
2019-02-24T10:31:19.853Z,11.53
2019-02-24T10:33:44.018Z,10.07
2019-02-24T10:36:12.826Z,8.10
2019-02-24T10:38:41.655Z,10.30
2019-02-24T10:41:10.590Z,9.10
2019-02-24T10:43:39.376Z,9.60
2019-02-24T10:46:08.169Z,8.83
2019-02-24T10:48:36.994Z,8.90
2019-02-24T10:51:05.843Z,8.80
2019-02-24T10:53:35.677Z,9.47
2019-02-24T10:56:04.834Z,9.30
2019-02-24T10:58:34.922Z,8.90
2019-02-24T11:01:03.949Z,8.53
2019-02-24T11:03:32.820Z,8.67
2019-02-24T11:06:01.628Z,9.03
2019-02-24T11:08:31.056Z,12.37
2019-02-24T11:11:00.764Z,8.60
2019-02-24T11:13:30.233Z,8.63
2019-02-24T11:15:59.062Z,10.10
2019-02-24T11:18:28.480Z,8.43
2019-02-24T11:20:57.275Z,8.87
2019-02-24T11:23:26.651Z,12.30
2019-02-24T11:25:56.067Z,9.27
2019-02-24T11:28:25.562Z,10.30
2019-02-24T11:30:54.424Z,8.37
2019-02-24T11:33:23.385Z,8.67
2019-02-24T11:35:52.175Z,8.27
2019-02-24T11:38:23.487Z,8.73
2019-02-24T11:40:52.305Z,7.90
2019-02-24T11:43:22.355Z,7.67
2019-02-24T11:45:53.028Z,7.97
2019-02-24T11:48:21.871Z,8.33
2019-02-24T11:50:51.250Z,8.80
2019-02-24T11:53:20.063Z,7.63
2019-02-24T11:55:50.937Z,8.73
2019-02-24T11:58:19.725Z,7.57
2019-02-24T12:00:48.616Z,7.33
2019-02-24T12:03:17.973Z,7.63
2019-02-24T12:05:46.827Z,7.53
2019-02-24T12:08:15.641Z,7.57
2019-02-24T12:10:44.415Z,7.93
2019-02-24T12:13:14.213Z,9.33
2019-02-24T12:15:43.632Z,10.80
2019-02-24T12:18:12.410Z,7.50
2019-02-24T12:20:41.224Z,9.33
2019-02-24T12:23:10.011Z,8.73
2019-02-24T12:25:40.659Z,7.87
2019-02-24T12:28:09.428Z,8.23
2019-02-24T12:30:38.287Z,7.90
2019-02-24T12:33:07.168Z,8.00
2019-02-24T12:35:35.928Z,7.77
2019-02-24T12:38:04.750Z,7.60
2019-02-24T12:40:33.574Z,7.87
2019-02-24T12:43:02.796Z,7.77
2019-02-24T12:45:32.296Z,8.63
2019-02-24T12:48:01.132Z,14.40
2019-02-24T12:50:29.949Z,8.70
2019-02-24T12:52:59.273Z,7.37
2019-02-24T12:55:28.694Z,8.27
2019-02-24T12:57:57.627Z,8.57
2019-02-24T13:00:26.477Z,7.57
2019-02-24T13:02:56.452Z,7.67
2019-02-24T13:05:25.403Z,7.57
2019-02-24T13:07:54.220Z,7.70
2019-02-24T13:10:23.368Z,7.80
2019-02-24T13:12:54.900Z,7.50
2019-02-24T13:15:23.694Z,7.10
2019-02-24T13:17:52.556Z,7.17
2019-02-24T13:20:23.377Z,6.53
2019-02-24T13:22:52.173Z,7.10
2019-02-24T13:25:20.989Z,7.23
2019-02-24T13:27:50.405Z,6.70
2019-02-24T13:30:20.169Z,6.50
2019-02-24T13:32:49.734Z,6.87
2019-02-24T13:35:18.533Z,6.83
2019-02-24T13:37:47.347Z,6.20
2019-02-24T13:40:17.947Z,6.67
2019-02-24T13:42:46.856Z,7.23
2019-02-24T13:45:16.673Z,6.53
2019-02-24T13:47:47.732Z,6.37
2019-02-24T13:50:16.560Z,5.90
2019-02-24T13:52:45.387Z,6.47
2019-02-24T13:55:14.176Z,6.37
2019-02-24T13:57:43.669Z,6.07
2019-02-24T14:00:14.648Z,6.37
2019-02-24T14:02:43.498Z,6.70
2019-02-24T14:05:12.376Z,6.13
2019-02-24T14:07:41.161Z,6.03
2019-02-24T14:10:10.610Z,5.80
2019-02-24T14:12:39.420Z,6.50
2019-02-24T14:15:08.807Z,5.53
2019-02-24T14:17:38.580Z,4.97
2019-02-24T14:20:08.922Z,5.57
2019-02-24T14:22:37.754Z,5.57
2019-02-24T14:25:06.822Z,6.27
2019-02-24T14:27:35.694Z,6.07
2019-02-24T14:30:07.630Z,6.13
2019-02-24T14:32:35.117Z,5.97
2019-02-24T14:35:04.615Z,5.73
2019-02-24T14:37:34.136Z,5.90
2019-02-24T14:40:03.027Z,5.23
2019-02-24T14:42:32.805Z,5.97
2019-02-24T14:45:01.620Z,5.27
2019-02-24T14:47:30.487Z,5.67
2019-02-24T14:50:02.085Z,5.50
2019-02-24T14:52:30.876Z,5.30
2019-02-24T14:54:59.734Z,5.60
2019-02-24T14:57:32.996Z,5.03
2019-02-24T15:00:02.556Z,4.60
2019-02-24T15:02:31.602Z,5.10
2019-02-24T15:05:00.521Z,6.30
2019-02-24T15:07:29.302Z,5.60
2019-02-24T15:09:58.189Z,5.90
2019-02-24T15:12:27.918Z,5.00
2019-02-24T15:14:56.730Z,5.10
2019-02-24T15:17:26.370Z,4.83
2019-02-24T15:19:57.287Z,5.63
2019-02-24T15:22:26.099Z,5.20
2019-02-24T15:24:58.514Z,4.77
2019-02-24T15:27:27.316Z,4.57
2019-02-24T15:29:56.155Z,5.37
2019-02-24T15:32:25.763Z,4.73
2019-02-24T15:34:54.625Z,5.10
2019-02-24T15:37:23.563Z,4.73
2019-02-24T15:39:53.051Z,5.07
2019-02-24T15:42:21.971Z,5.10
2019-02-24T15:44:50.793Z,5.27
2019-02-24T15:47:19.603Z,4.87
2019-02-24T15:49:48.377Z,4.60
2019-02-24T15:52:17.172Z,4.90
2019-02-24T15:54:45.975Z,4.87
2019-02-24T15:57:15.507Z,4.50
2019-02-24T15:59:44.915Z,6.20
2019-02-24T16:02:15.429Z,14.37
2019-02-24T16:04:44.202Z,5.73
2019-02-24T16:07:13.420Z,5.53
2019-02-24T16:09:42.208Z,5.77
2019-02-24T16:12:11.027Z,5.20
2019-02-24T16:14:39.804Z,5.20
2019-02-24T16:17:08.664Z,6.70
2019-02-24T16:19:37.428Z,8.97
2019-02-24T16:22:06.334Z,7.90
2019-02-24T16:24:35.780Z,6.33
2019-02-24T16:27:07.491Z,9.67
2019-02-24T16:29:36.291Z,9.80
2019-02-24T16:32:05.131Z,11.20
2019-02-24T16:34:34.083Z,9.37
2019-02-24T16:37:02.936Z,7.00
2019-02-24T16:39:31.719Z,6.73
2019-02-24T16:42:03.599Z,9.23
2019-02-24T16:44:32.717Z,6.30
2019-02-24T16:47:01.488Z,6.43
2019-02-24T16:49:31.291Z,6.00
2019-02-24T16:52:00.114Z,7.13
2019-02-24T16:54:28.974Z,5.70
2019-02-24T16:57:04.745Z,6.80
2019-02-24T16:59:27.505Z,5.70
2019-02-24T17:01:57.272Z,39.43
2019-02-24T17:04:26.058Z,42.50
2019-02-24T17:06:55.419Z,38.67
2019-02-24T17:09:24.762Z,43.77
2019-02-24T17:11:54.063Z,19.37
2019-02-24T17:14:24.839Z,12.30
2019-02-24T17:16:51.758Z,11.40
2019-02-24T17:19:21.172Z,12.13
2019-02-24T17:21:50.052Z,11.57
2019-02-24T17:24:18.852Z,12.07
2019-02-24T17:26:47.688Z,10.77
2019-02-24T17:29:16.505Z,9.07
2019-02-24T17:31:45.462Z,9.93
2019-02-24T17:34:14.283Z,9.87
2019-02-24T17:36:43.076Z,8.57
2019-02-24T17:39:13.167Z,9.60
2019-02-24T17:41:43.299Z,8.70
2019-02-24T17:44:12.115Z,9.40
2019-02-24T17:46:40.927Z,9.63
2019-02-24T17:49:11.208Z,12.00
2019-02-24T17:51:40.077Z,16.50
2019-02-24T17:54:08.934Z,12.23
2019-02-24T17:56:37.809Z,10.23
2019-02-24T17:59:08.714Z,10.33
2019-02-24T18:01:37.886Z,9.80
2019-02-24T18:04:06.742Z,8.90
2019-02-24T18:06:35.632Z,8.50
2019-02-24T18:09:05.355Z,10.03
2019-02-24T18:11:34.188Z,64.50
2019-02-24T18:14:03.010Z,12.57
2019-02-24T18:16:31.839Z,14.70
2019-02-24T18:19:01.217Z,13.13
2019-02-24T18:21:30.032Z,14.83
2019-02-24T18:23:58.894Z,21.97
2019-02-24T18:26:27.782Z,12.73
2019-02-24T18:28:59.192Z,11.57
2019-02-24T18:31:27.983Z,11.13
2019-02-24T18:33:57.613Z,12.23
2019-02-24T18:36:26.421Z,9.77
2019-02-24T18:38:56.575Z,11.67
2019-02-24T18:41:25.494Z,11.60
2019-02-24T18:43:54.318Z,12.17
2019-02-24T18:46:23.697Z,10.33
2019-02-24T18:48:52.515Z,11.10
2019-02-24T18:51:22.027Z,11.03
2019-02-24T18:53:50.819Z,10.53
2019-02-24T18:56:19.648Z,8.83
2019-02-24T18:58:48.931Z,10.00
2019-02-24T19:01:17.770Z,9.47
2019-02-24T19:03:46.572Z,10.80
2019-02-24T19:06:15.593Z,10.43
2019-02-24T19:08:44.456Z,11.70
2019-02-24T19:11:13.261Z,11.80
2019-02-24T19:13:43.374Z,11.17
2019-02-24T19:16:12.202Z,10.90
2019-02-24T19:18:41.084Z,11.73
2019-02-24T19:21:10.128Z,10.93
2019-02-24T19:23:39.876Z,10.67
2019-02-24T19:26:09.283Z,11.30
2019-02-24T19:28:38.083Z,10.47
2019-02-24T19:31:06.900Z,11.27
2019-02-24T19:33:35.700Z,10.77
2019-02-24T19:36:05.213Z,12.60
2019-02-24T19:38:34.609Z,12.00
2019-02-24T19:41:03.386Z,10.97
2019-02-24T19:43:32.202Z,11.00
2019-02-24T19:46:01.007Z,11.73
2019-02-24T19:48:29.826Z,13.53
2019-02-24T19:50:58.739Z,12.20
2019-02-24T19:53:27.554Z,12.13
2019-02-24T19:56:00.497Z,13.23
2019-02-24T19:58:29.331Z,12.83
2019-02-24T20:01:01.176Z,11.63
2019-02-24T20:03:30.396Z,11.60
2019-02-24T20:05:59.165Z,11.77
2019-02-24T20:08:28.556Z,11.77
2019-02-24T20:10:59.155Z,12.67
2019-02-24T20:13:28.514Z,12.50
2019-02-24T20:15:57.338Z,12.97
2019-02-24T20:18:26.216Z,12.63
2019-02-24T20:20:55.083Z,13.70
2019-02-24T20:23:23.884Z,11.67
2019-02-24T20:25:52.739Z,14.90
2019-02-24T20:28:22.190Z,13.83
2019-02-24T20:30:51.037Z,14.07
2019-02-24T20:33:19.900Z,13.67
2019-02-24T20:35:49.214Z,13.07
2019-02-24T20:38:19.086Z,12.23
2019-02-24T20:40:47.947Z,12.70
2019-02-24T20:43:17.323Z,11.73
2019-02-24T20:45:47.589Z,13.07
2019-02-24T20:48:16.414Z,13.30
2019-02-24T20:50:45.248Z,13.47
2019-02-24T20:53:16.241Z,14.20
2019-02-24T20:55:45.028Z,14.97
2019-02-24T20:58:13.826Z,15.47
2019-02-24T21:00:42.623Z,13.53
2019-02-24T21:03:11.420Z,14.23
2019-02-24T21:05:40.242Z,13.80
2019-02-24T21:08:09.027Z,12.53
2019-02-24T21:10:37.867Z,14.23
2019-02-24T21:13:06.683Z,13.17
2019-02-24T21:15:35.511Z,14.17
2019-02-24T21:18:04.399Z,12.80
2019-02-24T21:20:33.305Z,13.47
2019-02-24T21:23:02.134Z,12.47
2019-02-24T21:25:30.941Z,12.80
2019-02-24T21:27:59.745Z,12.93
2019-02-24T21:30:29.264Z,12.63
2019-02-24T21:32:58.623Z,12.03
2019-02-24T21:35:27.399Z,12.67
2019-02-24T21:37:56.180Z,11.93
2019-02-24T21:40:25.012Z,12.83
2019-02-24T21:42:53.806Z,12.97
2019-02-24T21:45:22.904Z,13.00
2019-02-24T21:47:52.741Z,13.27
2019-02-24T21:50:21.550Z,11.83
2019-02-24T21:52:50.348Z,13.67
2019-02-24T21:55:19.140Z,12.37
2019-02-24T21:57:48.739Z,12.87
2019-02-24T22:00:19.472Z,13.47
2019-02-24T22:02:48.875Z,12.47
2019-02-24T22:05:18.319Z,13.27
2019-02-24T22:07:47.123Z,12.40
2019-02-24T22:10:16.529Z,13.97
2019-02-24T22:12:45.333Z,13.83
2019-02-24T22:15:16.523Z,13.30
2019-02-24T22:17:45.312Z,12.80
2019-02-24T22:20:14.980Z,13.47
2019-02-24T22:22:43.767Z,24.73
2019-02-24T22:25:12.611Z,16.73
2019-02-24T22:27:41.430Z,16.83
2019-02-24T22:30:13.489Z,17.00
2019-02-24T22:32:43.054Z,16.50
2019-02-24T22:35:11.914Z,16.60
2019-02-24T22:37:40.698Z,15.13
2019-02-24T22:40:11.918Z,14.97
2019-02-24T22:42:41.915Z,9.80
2019-02-24T22:45:13.187Z,13.23
2019-02-24T22:47:44.155Z,11.83
2019-02-24T22:50:15.967Z,12.93
2019-02-24T22:52:46.419Z,11.40
2019-02-24T22:55:17.445Z,9.63
2019-02-24T22:57:46.577Z,8.73
2019-02-24T23:00:26.667Z,8.73
2019-02-24T23:02:55.450Z,7.70
2019-02-24T23:05:24.357Z,9.60
2019-02-24T23:07:53.195Z,9.60
2019-02-24T23:10:22.772Z,9.13
2019-02-24T23:12:53.386Z,8.60
2019-02-24T23:15:23.040Z,9.23
2019-02-24T23:17:51.824Z,9.63
2019-02-24T23:20:20.635Z,9.27
2019-02-24T23:22:49.587Z,9.70
2019-02-24T23:25:19.145Z,9.63
2019-02-24T23:27:47.951Z,8.70
2019-02-24T23:30:16.791Z,8.77
2019-02-24T23:32:45.592Z,9.10
2019-02-24T23:35:14.456Z,8.27
2019-02-24T23:37:43.255Z,8.63
2019-02-24T23:40:12.132Z,9.00
2019-02-24T23:42:40.903Z,7.70
2019-02-24T23:45:10.684Z,7.70
2019-02-24T23:47:38.536Z,8.20
2019-02-24T23:50:07.400Z,9.53
2019-02-24T23:52:36.200Z,8.37
2019-02-24T23:55:06.154Z,9.40
2019-02-24T23:57:35.139Z,8.73
